sensor_id;sensor_type;location;lat;lon;timestamp;temperature;humidity
84389;DHT22;74589;48.846;2.382;2023-12-20T00:00:57;13.30;19.40
84389;DHT22;74589;48.846;2.382;2023-12-20T00:03:23;13.30;19.80
84389;DHT22;74589;48.846;2.382;2023-12-20T00:05:49;13.30;19.80
84389;DHT22;74589;48.846;2.382;2023-12-20T00:08:16;13.30;20.00
84389;DHT22;74589;48.846;2.382;2023-12-20T00:10:42;13.20;20.00
84389;DHT22;74589;48.846;2.382;2023-12-20T00:13:08;13.20;20.10
84389;DHT22;74589;48.846;2.382;2023-12-20T00:15:34;13.20;19.70
84389;DHT22;74589;48.846;2.382;2023-12-20T00:18:00;13.30;18.10
84389;DHT22;74589;48.846;2.382;2023-12-20T00:20:27;13.20;18.80
84389;DHT22;74589;48.846;2.382;2023-12-20T00:22:54;13.20;18.20
84389;DHT22;74589;48.846;2.382;2023-12-20T00:25:20;13.10;18.40
84389;DHT22;74589;48.846;2.382;2023-12-20T00:27:45;13.10;18.70
84389;DHT22;74589;48.846;2.382;2023-12-20T00:30:11;13.00;18.50
84389;DHT22;74589;48.846;2.382;2023-12-20T00:32:37;13.00;18.80
84389;DHT22;74589;48.846;2.382;2023-12-20T00:35:02;13.00;18.90
84389;DHT22;74589;48.846;2.382;2023-12-20T00:37:28;13.00;18.20
84389;DHT22;74589;48.846;2.382;2023-12-20T00:39:54;13.00;17.00
84389;DHT22;74589;48.846;2.382;2023-12-20T00:42:19;12.90;16.40
84389;DHT22;74589;48.846;2.382;2023-12-20T00:44:45;12.80;16.30
84389;DHT22;74589;48.846;2.382;2023-12-20T00:47:11;12.70;16.20
84389;DHT22;74589;48.846;2.382;2023-12-20T00:49:36;12.80;15.90
84389;DHT22;74589;48.846;2.382;2023-12-20T00:52:02;12.70;15.10
84389;DHT22;74589;48.846;2.382;2023-12-20T00:54:28;12.70;14.50
84389;DHT22;74589;48.846;2.382;2023-12-20T00:56:55;12.60;13.80
84389;DHT22;74589;48.846;2.382;2023-12-20T00:59:20;12.50;13.70
84389;DHT22;74589;48.846;2.382;2023-12-20T01:01:46;12.50;13.50
84389;DHT22;74589;48.846;2.382;2023-12-20T01:04:11;12.50;12.70
84389;DHT22;74589;48.846;2.382;2023-12-20T01:06:37;12.40;12.00
84389;DHT22;74589;48.846;2.382;2023-12-20T01:09:03;12.30;12.00
84389;DHT22;74589;48.846;2.382;2023-12-20T01:11:28;12.40;10.20
84389;DHT22;74589;48.846;2.382;2023-12-20T01:13:54;12.30;10.80
84389;DHT22;74589;48.846;2.382;2023-12-20T01:16:19;12.30;11.00
84389;DHT22;74589;48.846;2.382;2023-12-20T01:18:45;12.20;11.30
84389;DHT22;74589;48.846;2.382;2023-12-20T01:21:10;12.20;10.90
84389;DHT22;74589;48.846;2.382;2023-12-20T01:23:36;12.20;10.10
84389;DHT22;74589;48.846;2.382;2023-12-20T01:26:02;12.20;10.40
84389;DHT22;74589;48.846;2.382;2023-12-20T01:28:31;12.00;10.70
84389;DHT22;74589;48.846;2.382;2023-12-20T01:30:57;11.90;11.60
84389;DHT22;74589;48.846;2.382;2023-12-20T01:33:23;11.90;11.90
84389;DHT22;74589;48.846;2.382;2023-12-20T01:35:49;11.90;12.00
84389;DHT22;74589;48.846;2.382;2023-12-20T01:38:14;11.80;12.60
84389;DHT22;74589;48.846;2.382;2023-12-20T01:40:40;11.80;12.30
84389;DHT22;74589;48.846;2.382;2023-12-20T01:43:08;11.80;12.30
84389;DHT22;74589;48.846;2.382;2023-12-20T01:45:34;11.70;12.60
84389;DHT22;74589;48.846;2.382;2023-12-20T01:48:00;11.70;12.30
84389;DHT22;74589;48.846;2.382;2023-12-20T01:50:28;11.70;13.10
84389;DHT22;74589;48.846;2.382;2023-12-20T01:52:55;11.70;12.40
84389;DHT22;74589;48.846;2.382;2023-12-20T01:55:24;11.70;12.80
84389;DHT22;74589;48.846;2.382;2023-12-20T01:57:50;11.70;12.50
84389;DHT22;74589;48.846;2.382;2023-12-20T02:00:16;11.70;12.40
84389;DHT22;74589;48.846;2.382;2023-12-20T02:02:44;11.70;12.40
84389;DHT22;74589;48.846;2.382;2023-12-20T02:05:11;11.70;12.00
84389;DHT22;74589;48.846;2.382;2023-12-20T02:07:36;11.60;11.70
84389;DHT22;74589;48.846;2.382;2023-12-20T02:10:03;11.60;12.60
84389;DHT22;74589;48.846;2.382;2023-12-20T02:12:31;11.60;12.40
84389;DHT22;74589;48.846;2.382;2023-12-20T02:14:57;11.70;12.30
84389;DHT22;74589;48.846;2.382;2023-12-20T02:17:23;11.70;12.30
84389;DHT22;74589;48.846;2.382;2023-12-20T02:19:49;11.70;12.00
84389;DHT22;74589;48.846;2.382;2023-12-20T02:22:15;11.80;11.50
84389;DHT22;74589;48.846;2.382;2023-12-20T02:24:41;11.90;11.20
84389;DHT22;74589;48.846;2.382;2023-12-20T02:27:07;11.90;10.80
84389;DHT22;74589;48.846;2.382;2023-12-20T02:29:33;11.90;10.80
84389;DHT22;74589;48.846;2.382;2023-12-20T02:31:59;11.90;11.00
84389;DHT22;74589;48.846;2.382;2023-12-20T02:34:25;11.80;11.30
84389;DHT22;74589;48.846;2.382;2023-12-20T02:36:51;11.80;11.60
84389;DHT22;74589;48.846;2.382;2023-12-20T02:39:16;11.80;10.70
84389;DHT22;74589;48.846;2.382;2023-12-20T02:41:42;11.90;10.50
84389;DHT22;74589;48.846;2.382;2023-12-20T02:44:08;11.80;10.40
84389;DHT22;74589;48.846;2.382;2023-12-20T02:46:33;11.80;10.20
84389;DHT22;74589;48.846;2.382;2023-12-20T02:48:59;11.90;10.00
84389;DHT22;74589;48.846;2.382;2023-12-20T02:51:24;11.90;9.90
84389;DHT22;74589;48.846;2.382;2023-12-20T02:53:50;11.80;9.90
84389;DHT22;74589;48.846;2.382;2023-12-20T02:56:15;11.60;10.50
84389;DHT22;74589;48.846;2.382;2023-12-20T02:58:41;11.60;10.50
84389;DHT22;74589;48.846;2.382;2023-12-20T03:01:07;11.60;10.80
84389;DHT22;74589;48.846;2.382;2023-12-20T03:03:33;11.60;10.50
84389;DHT22;74589;48.846;2.382;2023-12-20T03:05:59;11.50;11.00
84389;DHT22;74589;48.846;2.382;2023-12-20T03:08:25;11.30;11.50
84389;DHT22;74589;48.846;2.382;2023-12-20T03:10:50;11.30;11.60
84389;DHT22;74589;48.846;2.382;2023-12-20T03:13:16;11.50;11.00
84389;DHT22;74589;48.846;2.382;2023-12-20T03:15:42;11.40;11.20
84389;DHT22;74589;48.846;2.382;2023-12-20T03:18:07;11.30;11.70
84389;DHT22;74589;48.846;2.382;2023-12-20T03:20:33;11.30;11.80
84389;DHT22;74589;48.846;2.382;2023-12-20T03:23:00;11.50;10.60
84389;DHT22;74589;48.846;2.382;2023-12-20T03:25:26;11.40;10.60
84389;DHT22;74589;48.846;2.382;2023-12-20T03:27:52;11.30;11.50
84389;DHT22;74589;48.846;2.382;2023-12-20T03:30:18;11.20;12.00
84389;DHT22;74589;48.846;2.382;2023-12-20T03:32:44;11.20;11.90
84389;DHT22;74589;48.846;2.382;2023-12-20T03:35:10;11.30;11.30
84389;DHT22;74589;48.846;2.382;2023-12-20T03:37:36;11.30;11.10
84389;DHT22;74589;48.846;2.382;2023-12-20T03:40:01;11.30;11.50
84389;DHT22;74589;48.846;2.382;2023-12-20T03:42:27;11.10;12.10
84389;DHT22;74589;48.846;2.382;2023-12-20T03:44:53;11.20;12.00
84389;DHT22;74589;48.846;2.382;2023-12-20T03:47:18;11.10;12.40
84389;DHT22;74589;48.846;2.382;2023-12-20T03:49:44;11.00;12.60
84389;DHT22;74589;48.846;2.382;2023-12-20T03:52:10;11.00;12.60
84389;DHT22;74589;48.846;2.382;2023-12-20T03:54:35;11.00;12.60
84389;DHT22;74589;48.846;2.382;2023-12-20T03:57:01;10.90;12.60
84389;DHT22;74589;48.846;2.382;2023-12-20T03:59:27;11.00;12.50
84389;DHT22;74589;48.846;2.382;2023-12-20T04:01:52;11.00;12.80
84389;DHT22;74589;48.846;2.382;2023-12-20T04:04:19;11.00;12.40
84389;DHT22;74589;48.846;2.382;2023-12-20T04:06:44;11.10;11.70
84389;DHT22;74589;48.846;2.382;2023-12-20T04:09:10;10.90;12.50
84389;DHT22;74589;48.846;2.382;2023-12-20T04:11:36;10.90;12.80
84389;DHT22;74589;48.846;2.382;2023-12-20T04:14:02;11.00;12.80
84389;DHT22;74589;48.846;2.382;2023-12-20T04:16:27;10.90;12.70
84389;DHT22;74589;48.846;2.382;2023-12-20T04:18:53;10.90;12.70
84389;DHT22;74589;48.846;2.382;2023-12-20T04:21:18;10.80;12.90
84389;DHT22;74589;48.846;2.382;2023-12-20T04:23:44;10.80;13.40
84389;DHT22;74589;48.846;2.382;2023-12-20T04:26:10;10.70;13.60
84389;DHT22;74589;48.846;2.382;2023-12-20T04:28:36;10.80;13.10
84389;DHT22;74589;48.846;2.382;2023-12-20T04:31:01;10.90;12.50
84389;DHT22;74589;48.846;2.382;2023-12-20T04:33:27;11.00;12.10
84389;DHT22;74589;48.846;2.382;2023-12-20T04:35:53;10.80;12.70
84389;DHT22;74589;48.846;2.382;2023-12-20T04:38:18;10.70;13.10
84389;DHT22;74589;48.846;2.382;2023-12-20T04:40:44;10.70;13.10
84389;DHT22;74589;48.846;2.382;2023-12-20T04:43:10;10.90;12.50
84389;DHT22;74589;48.846;2.382;2023-12-20T04:45:35;10.90;13.00
84389;DHT22;74589;48.846;2.382;2023-12-20T04:48:02;10.80;13.00
84389;DHT22;74589;48.846;2.382;2023-12-20T04:50:27;10.90;13.00
84389;DHT22;74589;48.846;2.382;2023-12-20T04:52:53;10.80;13.10
84389;DHT22;74589;48.846;2.382;2023-12-20T04:55:19;10.90;12.60
84389;DHT22;74589;48.846;2.382;2023-12-20T04:57:45;10.80;12.30
84389;DHT22;74589;48.846;2.382;2023-12-20T05:00:11;10.80;12.50
84389;DHT22;74589;48.846;2.382;2023-12-20T05:02:37;10.90;12.00
84389;DHT22;74589;48.846;2.382;2023-12-20T05:05:03;10.80;12.50
84389;DHT22;74589;48.846;2.382;2023-12-20T05:07:28;10.80;12.50
84389;DHT22;74589;48.846;2.382;2023-12-20T05:09:54;10.70;12.50
84389;DHT22;74589;48.846;2.382;2023-12-20T05:12:20;10.70;12.90
84389;DHT22;74589;48.846;2.382;2023-12-20T05:14:46;10.70;13.00
84389;DHT22;74589;48.846;2.382;2023-12-20T05:17:11;10.80;12.30
84389;DHT22;74589;48.846;2.382;2023-12-20T05:19:37;10.70;12.70
84389;DHT22;74589;48.846;2.382;2023-12-20T05:22:03;10.70;13.10
84389;DHT22;74589;48.846;2.382;2023-12-20T05:24:29;10.70;12.50
84389;DHT22;74589;48.846;2.382;2023-12-20T05:26:54;10.70;12.60
84389;DHT22;74589;48.846;2.382;2023-12-20T05:29:20;10.70;12.70
84389;DHT22;74589;48.846;2.382;2023-12-20T05:31:46;10.70;12.80
84389;DHT22;74589;48.846;2.382;2023-12-20T05:34:11;10.70;12.50
84389;DHT22;74589;48.846;2.382;2023-12-20T05:36:37;10.60;13.00
84389;DHT22;74589;48.846;2.382;2023-12-20T05:39:04;10.70;13.10
84389;DHT22;74589;48.846;2.382;2023-12-20T05:41:30;10.70;13.00
84389;DHT22;74589;48.846;2.382;2023-12-20T05:43:56;10.70;12.70
84389;DHT22;74589;48.846;2.382;2023-12-20T05:46:23;10.70;13.00
84389;DHT22;74589;48.846;2.382;2023-12-20T05:48:49;10.70;12.60
84389;DHT22;74589;48.846;2.382;2023-12-20T05:51:17;10.70;12.80
84389;DHT22;74589;48.846;2.382;2023-12-20T05:53:43;10.60;12.90
84389;DHT22;74589;48.846;2.382;2023-12-20T05:56:09;10.60;13.00
84389;DHT22;74589;48.846;2.382;2023-12-20T05:58:35;10.50;13.40
84389;DHT22;74589;48.846;2.382;2023-12-20T06:01:04;10.60;13.40
84389;DHT22;74589;48.846;2.382;2023-12-20T06:03:29;10.60;13.30
84389;DHT22;74589;48.846;2.382;2023-12-20T06:05:55;10.60;12.90
84389;DHT22;74589;48.846;2.382;2023-12-20T06:08:20;10.60;13.00
84389;DHT22;74589;48.846;2.382;2023-12-20T06:10:46;10.60;12.80
84389;DHT22;74589;48.846;2.382;2023-12-20T06:13:12;10.60;12.70
84389;DHT22;74589;48.846;2.382;2023-12-20T06:15:38;10.80;12.20
84389;DHT22;74589;48.846;2.382;2023-12-20T06:18:05;10.50;12.70
84389;DHT22;74589;48.846;2.382;2023-12-20T06:20:31;10.40;13.70
84389;DHT22;74589;48.846;2.382;2023-12-20T06:22:57;10.30;13.80
84389;DHT22;74589;48.846;2.382;2023-12-20T06:25:22;10.50;14.00
84389;DHT22;74589;48.846;2.382;2023-12-20T06:27:48;10.50;13.80
84389;DHT22;74589;48.846;2.382;2023-12-20T06:30:15;10.60;13.10
84389;DHT22;74589;48.846;2.382;2023-12-20T06:32:41;10.60;13.50
84389;DHT22;74589;48.846;2.382;2023-12-20T06:35:10;10.60;12.70
84389;DHT22;74589;48.846;2.382;2023-12-20T06:37:36;10.60;13.10
84389;DHT22;74589;48.846;2.382;2023-12-20T06:40:02;10.70;12.50
84389;DHT22;74589;48.846;2.382;2023-12-20T06:42:28;10.70;12.20
84389;DHT22;74589;48.846;2.382;2023-12-20T06:44:53;10.60;12.70
84389;DHT22;74589;48.846;2.382;2023-12-20T06:47:19;10.60;12.90
84389;DHT22;74589;48.846;2.382;2023-12-20T06:49:44;10.40;13.40
84389;DHT22;74589;48.846;2.382;2023-12-20T06:52:10;10.60;12.90
84389;DHT22;74589;48.846;2.382;2023-12-20T06:54:36;10.60;12.60
84389;DHT22;74589;48.846;2.382;2023-12-20T06:57:01;10.60;12.80
84389;DHT22;74589;48.846;2.382;2023-12-20T06:59:29;10.50;12.80
84389;DHT22;74589;48.846;2.382;2023-12-20T07:01:54;10.50;14.00
84389;DHT22;74589;48.846;2.382;2023-12-20T07:04:20;10.70;12.80
84389;DHT22;74589;48.846;2.382;2023-12-20T07:06:48;10.60;13.30
84389;DHT22;74589;48.846;2.382;2023-12-20T07:09:15;10.40;13.50
84389;DHT22;74589;48.846;2.382;2023-12-20T07:11:40;10.50;13.70
84389;DHT22;74589;48.846;2.382;2023-12-20T07:14:06;10.50;13.80
84389;DHT22;74589;48.846;2.382;2023-12-20T07:16:32;10.50;13.90
84389;DHT22;74589;48.846;2.382;2023-12-20T07:18:57;10.60;13.70
84389;DHT22;74589;48.846;2.382;2023-12-20T07:21:23;10.40;13.50
84389;DHT22;74589;48.846;2.382;2023-12-20T07:23:49;10.40;14.20
84389;DHT22;74589;48.846;2.382;2023-12-20T07:26:15;10.50;13.90
84389;DHT22;74589;48.846;2.382;2023-12-20T07:28:41;10.60;13.50
84389;DHT22;74589;48.846;2.382;2023-12-20T07:31:07;10.60;13.60
84389;DHT22;74589;48.846;2.382;2023-12-20T07:33:32;10.50;14.10
84389;DHT22;74589;48.846;2.382;2023-12-20T07:35:59;10.50;14.20
84389;DHT22;74589;48.846;2.382;2023-12-20T07:38:26;10.70;13.10
84389;DHT22;74589;48.846;2.382;2023-12-20T07:40:51;10.70;12.90
84389;DHT22;74589;48.846;2.382;2023-12-20T07:43:17;10.60;13.80
84389;DHT22;74589;48.846;2.382;2023-12-20T07:45:43;10.60;13.80
84389;DHT22;74589;48.846;2.382;2023-12-20T07:48:08;10.40;13.90
84389;DHT22;74589;48.846;2.382;2023-12-20T07:50:34;10.40;14.30
84389;DHT22;74589;48.846;2.382;2023-12-20T07:53:00;10.50;13.60
84389;DHT22;74589;48.846;2.382;2023-12-20T07:55:26;10.60;13.50
84389;DHT22;74589;48.846;2.382;2023-12-20T07:57:52;10.60;13.60
84389;DHT22;74589;48.846;2.382;2023-12-20T08:00:18;10.40;14.20
84389;DHT22;74589;48.846;2.382;2023-12-20T08:02:44;10.50;14.10
84389;DHT22;74589;48.846;2.382;2023-12-20T08:05:10;10.40;14.30
84389;DHT22;74589;48.846;2.382;2023-12-20T08:07:36;10.50;14.90
84389;DHT22;74589;48.846;2.382;2023-12-20T08:10:02;10.50;14.40
84389;DHT22;74589;48.846;2.382;2023-12-20T08:12:28;10.50;14.50
84389;DHT22;74589;48.846;2.382;2023-12-20T08:14:54;10.70;13.90
84389;DHT22;74589;48.846;2.382;2023-12-20T08:17:19;10.60;14.00
84389;DHT22;74589;48.846;2.382;2023-12-20T08:19:45;10.60;14.40
84389;DHT22;74589;48.846;2.382;2023-12-20T08:22:11;10.60;14.20
84389;DHT22;74589;48.846;2.382;2023-12-20T08:24:37;10.70;14.20
84389;DHT22;74589;48.846;2.382;2023-12-20T08:27:04;10.70;14.30
84389;DHT22;74589;48.846;2.382;2023-12-20T08:29:30;10.70;14.00
84389;DHT22;74589;48.846;2.382;2023-12-20T08:31:56;10.80;13.60
84389;DHT22;74589;48.846;2.382;2023-12-20T08:34:22;10.80;13.70
84389;DHT22;74589;48.846;2.382;2023-12-20T08:36:50;10.90;13.10
84389;DHT22;74589;48.846;2.382;2023-12-20T08:39:16;10.90;13.50
84389;DHT22;74589;48.846;2.382;2023-12-20T08:41:42;10.80;13.20
84389;DHT22;74589;48.846;2.382;2023-12-20T08:44:08;10.90;13.50
84389;DHT22;74589;48.846;2.382;2023-12-20T08:46:33;10.90;13.30
84389;DHT22;74589;48.846;2.382;2023-12-20T08:48:59;10.90;13.30
84389;DHT22;74589;48.846;2.382;2023-12-20T08:51:25;10.90;13.20
84389;DHT22;74589;48.846;2.382;2023-12-20T08:53:51;10.90;13.30
84389;DHT22;74589;48.846;2.382;2023-12-20T08:56:17;11.00;12.90
84389;DHT22;74589;48.846;2.382;2023-12-20T08:58:44;11.10;12.40
84389;DHT22;74589;48.846;2.382;2023-12-20T09:01:10;11.10;12.10
84389;DHT22;74589;48.846;2.382;2023-12-20T09:03:36;11.30;11.70
84389;DHT22;74589;48.846;2.382;2023-12-20T09:06:01;11.30;11.70
84389;DHT22;74589;48.846;2.382;2023-12-20T09:08:27;11.40;11.60
84389;DHT22;74589;48.846;2.382;2023-12-20T09:10:53;11.30;11.90
84389;DHT22;74589;48.846;2.382;2023-12-20T09:13:18;11.30;12.10
84389;DHT22;74589;48.846;2.382;2023-12-20T09:15:44;11.30;11.70
84389;DHT22;74589;48.846;2.382;2023-12-20T09:18:09;11.50;11.30
84389;DHT22;74589;48.846;2.382;2023-12-20T09:20:35;11.30;11.40
84389;DHT22;74589;48.846;2.382;2023-12-20T09:23:01;11.30;11.90
84389;DHT22;74589;48.846;2.382;2023-12-20T09:25:26;11.50;11.30
84389;DHT22;74589;48.846;2.382;2023-12-20T09:27:52;11.50;11.20
84389;DHT22;74589;48.846;2.382;2023-12-20T09:30:18;11.80;10.40
84389;DHT22;74589;48.846;2.382;2023-12-20T09:32:45;11.90;10.10
84389;DHT22;74589;48.846;2.382;2023-12-20T09:35:11;12.00;10.30
84389;DHT22;74589;48.846;2.382;2023-12-20T09:37:36;12.00;10.00
84389;DHT22;74589;48.846;2.382;2023-12-20T09:40:03;12.00;10.00
84389;DHT22;74589;48.846;2.382;2023-12-20T09:45:13;12.10;10.70
84389;DHT22;74589;48.846;2.382;2023-12-20T09:47:40;12.20;9.60
84389;DHT22;74589;48.846;2.382;2023-12-20T09:50:07;12.20;9.80
84389;DHT22;74589;48.846;2.382;2023-12-20T09:52:34;12.20;9.60
84389;DHT22;74589;48.846;2.382;2023-12-20T09:55:01;12.20;9.50
84389;DHT22;74589;48.846;2.382;2023-12-20T09:57:31;12.20;10.20
84389;DHT22;74589;48.846;2.382;2023-12-20T09:59:57;12.20;9.90
84389;DHT22;74589;48.846;2.382;2023-12-20T10:02:25;12.40;9.20
84389;DHT22;74589;48.846;2.382;2023-12-20T10:04:55;12.50;9.10
84389;DHT22;74589;48.846;2.382;2023-12-20T10:07:21;12.50;8.70
84389;DHT22;74589;48.846;2.382;2023-12-20T10:09:54;12.60;8.60
84389;DHT22;74589;48.846;2.382;2023-12-20T10:12:21;12.70;8.80
84389;DHT22;74589;48.846;2.382;2023-12-20T10:14:46;12.70;8.70
84389;DHT22;74589;48.846;2.382;2023-12-20T10:17:12;12.80;8.10
84389;DHT22;74589;48.846;2.382;2023-12-20T10:19:38;12.80;8.10
84389;DHT22;74589;48.846;2.382;2023-12-20T10:22:06;12.70;8.60
84389;DHT22;74589;48.846;2.382;2023-12-20T10:24:32;12.70;8.70
84389;DHT22;74589;48.846;2.382;2023-12-20T10:27:04;12.60;8.90
84389;DHT22;74589;48.846;2.382;2023-12-20T10:29:36;12.80;8.50
84389;DHT22;74589;48.846;2.382;2023-12-20T10:32:25;13.00;8.10
84389;DHT22;74589;48.846;2.382;2023-12-20T10:34:52;13.00;7.70
84389;DHT22;74589;48.846;2.382;2023-12-20T10:37:18;13.00;7.60
84389;DHT22;74589;48.846;2.382;2023-12-20T10:39:43;13.00;7.90
84389;DHT22;74589;48.846;2.382;2023-12-20T10:42:13;13.10;7.90
84389;DHT22;74589;48.846;2.382;2023-12-20T10:44:39;13.10;8.10
84389;DHT22;74589;48.846;2.382;2023-12-20T10:47:06;13.20;7.60
84389;DHT22;74589;48.846;2.382;2023-12-20T10:49:36;13.10;7.70
84389;DHT22;74589;48.846;2.382;2023-12-20T10:52:04;13.10;7.90
84389;DHT22;74589;48.846;2.382;2023-12-20T10:54:30;13.10;7.70
84389;DHT22;74589;48.846;2.382;2023-12-20T10:56:57;13.20;8.10
84389;DHT22;74589;48.846;2.382;2023-12-20T10:59:24;13.30;7.80
84389;DHT22;74589;48.846;2.382;2023-12-20T11:01:50;13.40;7.30
84389;DHT22;74589;48.846;2.382;2023-12-20T11:04:25;13.60;6.50
84389;DHT22;74589;48.846;2.382;2023-12-20T11:06:52;13.60;6.60
84389;DHT22;74589;48.846;2.382;2023-12-20T11:09:24;13.50;6.70
84389;DHT22;74589;48.846;2.382;2023-12-20T11:12:06;13.30;7.30
84389;DHT22;74589;48.846;2.382;2023-12-20T11:14:47;13.30;7.50
84389;DHT22;74589;48.846;2.382;2023-12-20T11:17:13;13.30;6.70
84389;DHT22;74589;48.846;2.382;2023-12-20T11:22:25;12.80;8.70
84389;DHT22;74589;48.846;2.382;2023-12-20T11:24:52;12.90;7.70
84389;DHT22;74589;48.846;2.382;2023-12-20T11:27:19;12.90;7.80
84389;DHT22;74589;48.846;2.382;2023-12-20T11:29:52;12.90;8.30
84389;DHT22;74589;48.846;2.382;2023-12-20T11:34:59;12.70;8.80
84389;DHT22;74589;48.846;2.382;2023-12-20T11:37:34;12.70;9.30
84389;DHT22;74589;48.846;2.382;2023-12-20T11:40:20;12.90;8.30
84389;DHT22;74589;48.846;2.382;2023-12-20T11:42:49;12.90;8.50
84389;DHT22;74589;48.846;2.382;2023-12-20T11:45:17;13.10;8.00
84389;DHT22;74589;48.846;2.382;2023-12-20T11:47:46;13.30;7.80
84389;DHT22;74589;48.846;2.382;2023-12-20T11:50:13;13.50;6.50
84389;DHT22;74589;48.846;2.382;2023-12-20T11:52:38;13.50;7.00
84389;DHT22;74589;48.846;2.382;2023-12-20T11:55:04;13.50;6.50
84389;DHT22;74589;48.846;2.382;2023-12-20T11:57:31;13.50;6.40
84389;DHT22;74589;48.846;2.382;2023-12-20T11:59:56;13.40;6.40
84389;DHT22;74589;48.846;2.382;2023-12-20T12:02:22;13.40;6.20
84389;DHT22;74589;48.846;2.382;2023-12-20T12:04:49;13.20;6.90
84389;DHT22;74589;48.846;2.382;2023-12-20T12:07:18;13.30;7.30
84389;DHT22;74589;48.846;2.382;2023-12-20T12:09:44;13.30;6.80
84389;DHT22;74589;48.846;2.382;2023-12-20T12:12:13;13.40;7.00
84389;DHT22;74589;48.846;2.382;2023-12-20T12:14:39;13.40;6.60
84389;DHT22;74589;48.846;2.382;2023-12-20T12:17:12;13.30;6.80
84389;DHT22;74589;48.846;2.382;2023-12-20T12:19:40;13.30;7.30
84389;DHT22;74589;48.846;2.382;2023-12-20T12:22:07;13.30;7.20
84389;DHT22;74589;48.846;2.382;2023-12-20T12:24:34;13.30;7.40
84389;DHT22;74589;48.846;2.382;2023-12-20T12:27:00;13.10;8.00
84389;DHT22;74589;48.846;2.382;2023-12-20T12:29:25;13.10;8.60
84389;DHT22;74589;48.846;2.382;2023-12-20T12:31:51;13.20;7.90
84389;DHT22;74589;48.846;2.382;2023-12-20T12:34:20;13.20;8.30
84389;DHT22;74589;48.846;2.382;2023-12-20T12:36:45;13.10;8.60
84389;DHT22;74589;48.846;2.382;2023-12-20T12:39:14;13.20;9.20
84389;DHT22;74589;48.846;2.382;2023-12-20T12:41:43;13.30;9.90
84389;DHT22;74589;48.846;2.382;2023-12-20T12:44:08;13.20;10.80
84389;DHT22;74589;48.846;2.382;2023-12-20T12:46:34;13.00;11.60
84389;DHT22;74589;48.846;2.382;2023-12-20T12:49:00;13.00;11.70
84389;DHT22;74589;48.846;2.382;2023-12-20T12:51:26;12.90;12.30
84389;DHT22;74589;48.846;2.382;2023-12-20T12:53:51;12.80;12.40
84389;DHT22;74589;48.846;2.382;2023-12-20T12:56:17;12.80;12.60
84389;DHT22;74589;48.846;2.382;2023-12-20T12:58:43;13.00;12.40
84389;DHT22;74589;48.846;2.382;2023-12-20T13:01:08;12.90;12.40
84389;DHT22;74589;48.846;2.382;2023-12-20T13:03:35;13.00;12.30
84389;DHT22;74589;48.846;2.382;2023-12-20T13:06:01;13.20;11.80
84389;DHT22;74589;48.846;2.382;2023-12-20T13:08:27;13.20;11.30
84389;DHT22;74589;48.846;2.382;2023-12-20T13:10:52;13.40;10.30
84389;DHT22;74589;48.846;2.382;2023-12-20T13:13:18;13.40;10.10
84389;DHT22;74589;48.846;2.382;2023-12-20T13:15:44;13.40;10.70
84389;DHT22;74589;48.846;2.382;2023-12-20T13:18:16;13.40;10.50
84389;DHT22;74589;48.846;2.382;2023-12-20T13:20:42;13.30;11.40
84389;DHT22;74589;48.846;2.382;2023-12-20T13:23:08;13.40;11.00
84389;DHT22;74589;48.846;2.382;2023-12-20T13:25:33;13.30;11.40
84389;DHT22;74589;48.846;2.382;2023-12-20T13:27:59;13.20;11.80
84389;DHT22;74589;48.846;2.382;2023-12-20T13:30:25;13.10;11.60
84389;DHT22;74589;48.846;2.382;2023-12-20T13:32:50;13.10;11.60
84389;DHT22;74589;48.846;2.382;2023-12-20T13:35:16;13.00;11.80
84389;DHT22;74589;48.846;2.382;2023-12-20T13:37:41;13.10;11.60
84389;DHT22;74589;48.846;2.382;2023-12-20T13:40:07;13.10;11.80
84389;DHT22;74589;48.846;2.382;2023-12-20T13:42:33;13.20;11.60
84389;DHT22;74589;48.846;2.382;2023-12-20T13:44:59;13.30;11.20
84389;DHT22;74589;48.846;2.382;2023-12-20T13:47:25;13.30;10.80
84389;DHT22;74589;48.846;2.382;2023-12-20T13:49:50;13.30;10.90
84389;DHT22;74589;48.846;2.382;2023-12-20T13:52:16;13.30;10.70
84389;DHT22;74589;48.846;2.382;2023-12-20T13:54:41;13.30;10.90
84389;DHT22;74589;48.846;2.382;2023-12-20T13:57:07;13.30;10.70
84389;DHT22;74589;48.846;2.382;2023-12-20T13:59:33;13.40;10.40
84389;DHT22;74589;48.846;2.382;2023-12-20T14:01:58;13.40;10.20
84389;DHT22;74589;48.846;2.382;2023-12-20T14:04:24;13.40;10.80
84389;DHT22;74589;48.846;2.382;2023-12-20T14:06:49;13.40;10.70
84389;DHT22;74589;48.846;2.382;2023-12-20T14:09:15;13.30;11.00
84389;DHT22;74589;48.846;2.382;2023-12-20T14:11:41;13.40;10.40
84389;DHT22;74589;48.846;2.382;2023-12-20T14:14:09;13.40;10.60
84389;DHT22;74589;48.846;2.382;2023-12-20T14:16:36;13.40;10.30
84389;DHT22;74589;48.846;2.382;2023-12-20T14:19:01;13.50;9.40
84389;DHT22;74589;48.846;2.382;2023-12-20T14:21:28;13.50;9.70
84389;DHT22;74589;48.846;2.382;2023-12-20T14:23:54;13.40;9.90
84389;DHT22;74589;48.846;2.382;2023-12-20T14:26:20;13.50;9.70
84389;DHT22;74589;48.846;2.382;2023-12-20T14:28:45;13.50;10.10
84389;DHT22;74589;48.846;2.382;2023-12-20T14:31:11;13.40;11.50
84389;DHT22;74589;48.846;2.382;2023-12-20T14:33:37;13.40;12.00
84389;DHT22;74589;48.846;2.382;2023-12-20T14:36:05;13.40;12.80
84389;DHT22;74589;48.846;2.382;2023-12-20T14:38:33;13.20;13.70
84389;DHT22;74589;48.846;2.382;2023-12-20T14:40:59;13.10;15.00
84389;DHT22;74589;48.846;2.382;2023-12-20T14:43:26;13.00;15.70
84389;DHT22;74589;48.846;2.382;2023-12-20T14:45:52;13.20;15.50
84389;DHT22;74589;48.846;2.382;2023-12-20T14:48:18;13.00;15.90
84389;DHT22;74589;48.846;2.382;2023-12-20T14:50:44;13.00;16.00
84389;DHT22;74589;48.846;2.382;2023-12-20T14:53:10;13.00;16.40
84389;DHT22;74589;48.846;2.382;2023-12-20T14:55:35;13.10;15.70
84389;DHT22;74589;48.846;2.382;2023-12-20T14:58:01;13.10;16.00
84389;DHT22;74589;48.846;2.382;2023-12-20T15:00:27;13.20;14.70
84389;DHT22;74589;48.846;2.382;2023-12-20T15:02:53;13.40;12.80
84389;DHT22;74589;48.846;2.382;2023-12-20T15:05:21;13.40;13.00
84389;DHT22;74589;48.846;2.382;2023-12-20T15:07:47;13.30;12.80
84389;DHT22;74589;48.846;2.382;2023-12-20T15:10:13;13.30;12.40
84389;DHT22;74589;48.846;2.382;2023-12-20T15:12:39;13.20;13.20
84389;DHT22;74589;48.846;2.382;2023-12-20T15:15:05;13.30;12.80
84389;DHT22;74589;48.846;2.382;2023-12-20T15:17:31;13.40;12.50
84389;DHT22;74589;48.846;2.382;2023-12-20T15:19:57;13.40;12.00
84389;DHT22;74589;48.846;2.382;2023-12-20T15:22:22;13.40;12.00
84389;DHT22;74589;48.846;2.382;2023-12-20T15:24:49;13.50;11.00
84389;DHT22;74589;48.846;2.382;2023-12-20T15:27:16;13.60;10.70
84389;DHT22;74589;48.846;2.382;2023-12-20T15:29:43;13.50;10.60
84389;DHT22;74589;48.846;2.382;2023-12-20T15:32:08;13.50;10.80
84389;DHT22;74589;48.846;2.382;2023-12-20T15:34:34;13.40;11.00
84389;DHT22;74589;48.846;2.382;2023-12-20T15:37:00;13.30;11.70